Time;durP1;ratioP1;P1;durP2;ratioP2;P2;SDS_P1;SDS_P2;PMS_P1;PMS_P2;Temp;Humidity;BMP_temperature;BMP_pressure;BME280_temperature;BME280_humidity;BME280_pressure;Samples;Min_cycle;Max_cycle;Signal;HPM_P1;HPM_P2
2022/01/25 00:15:03;;;;;;;40.40;16.65;;;;;;;;;;4745246;30;20115;-77
2022/01/25 00:26:30;;;;;;;39.67;16.63;;;;;;;;;;4747876;30;20509;-74
2022/01/25 00:29:08;;;;;;;38.35;16.92;;;;;;;;;;4746234;30;20040;-74
2022/01/25 00:31:36;;;;;;;42.63;18.27;;;;;;;;;;4752512;30;20490;-77
2022/01/25 00:34:02;;;;;;;40.95;18.45;;;;;;;;;;4751717;30;20198;-77
2022/01/25 00:36:28;;;;;;;34.28;16.17;;;;;;;;;;4751313;30;20079;-77
2022/01/25 00:38:55;;;;;;;38.22;16.67;;;;;;;;;;4752697;30;20044;-77
2022/01/25 00:41:20;;;;;;;;;;;;;;;;;;4753356;30;20040;-77
2022/01/25 00:43:46;;;;;;;43.55;19.00;;;;;;;;;;4752353;30;19929;-77
2022/01/25 00:46:13;;;;;;;39.50;17.30;;;;;;;;;;4752347;30;20111;-77
2022/01/25 00:48:46;;;;;;;36.33;16.13;;;;;;;;;;4752892;30;20405;-77
2022/01/25 00:56:25;;;;;;;45.15;17.33;;;;;;;;;;4751526;30;20406;-74
2022/01/25 00:58:51;;;;;;;38.78;16.00;;;;;;;;;;4751174;30;20402;-74
2022/01/25 01:01:18;;;;;;;34.35;16.88;;;;;;;;;;4751272;30;20482;-74
2022/01/25 01:03:43;;;;;;;37.45;15.70;;;;;;;;;;4752529;30;20060;-74
2022/01/25 01:06:09;;;;;;;40.97;17.70;;;;;;;;;;4752714;30;20047;-74
2022/01/25 01:08:34;;;;;;;37.47;16.27;;;;;;;;;;4752501;30;20036;-74
2022/01/25 01:11:03;;;;;;;46.13;19.20;;;;;;;;;;4752371;30;20044;-74
2022/01/25 01:48:52;;;;;;;36.90;16.58;;;;;;;;;;4730746;30;20062;-77
2022/01/25 01:51:27;;;;;;;40.53;16.73;;;;;;;;;;4752329;30;20044;-77
2022/01/25 01:53:58;;;;;;;41.83;16.80;;;;;;;;;;4749590;30;20442;-77
2022/01/25 01:56:24;;;;;;;34.08;15.70;;;;;;;;;;4752135;30;20079;-77
2022/01/25 01:58:55;;;;;;;40.65;16.75;;;;;;;;;;4750722;30;20074;-77
2022/01/25 02:01:24;;;;;;;39.60;16.88;;;;;;;;;;4751862;30;20083;-77
2022/01/25 02:03:49;;;;;;;39.58;16.30;;;;;;;;;;4750753;30;20468;-77
2022/01/25 02:06:15;;;;;;;34.80;14.33;;;;;;;;;;4751933;30;20097;-77
2022/01/25 02:08:40;;;;;;;40.50;16.87;;;;;;;;;;4750456;30;20109;-77
2022/01/25 02:11:06;;;;;;;41.67;18.50;;;;;;;;;;4751923;30;20096;-77
2022/01/25 02:13:32;;;;;;;40.43;16.93;;;;;;;;;;4750269;30;20494;-74
2022/01/25 02:16:01;;;;;;;47.13;18.50;;;;;;;;;;4750831;30;20055;-74
2022/01/25 02:23:54;;;;;;;39.20;17.15;;;;;;;;;;4751421;30;20098;-74
2022/01/25 02:26:20;;;;;;;36.73;15.73;;;;;;;;;;4751924;30;20443;-74
2022/01/25 02:28:45;;;;;;;42.00;18.23;;;;;;;;;;4752122;30;20057;-74
2022/01/25 02:31:14;;;;;;;42.20;16.83;;;;;;;;;;4755041;30;20131;-77
2022/01/25 02:33:40;;;;;;;45.03;17.23;;;;;;;;;;4755078;30;20457;-77
2022/01/25 02:36:11;;;;;;;44.15;18.00;;;;;;;;;;4754502;30;20410;-77
2022/01/25 02:38:37;;;;;;;38.88;17.02;;;;;;;;;;4754660;30;20044;-77
2022/01/25 02:41:03;;;;;;;38.47;16.93;;;;;;;;;;4754951;30;20043;-76
2022/01/25 02:43:29;;;;;;;44.80;17.30;;;;;;;;;;4747829;30;20044;-74
2022/01/25 02:48:31;;;;;;;46.28;17.95;;;;;;;;;;4753663;30;20048;-74
2022/01/25 02:51:00;;;;;;;36.03;15.05;;;;;;;;;;4753343;30;20048;-74
2022/01/25 02:53:26;;;;;;;37.63;15.80;;;;;;;;;;4753573;30;20040;-74
2022/01/25 02:55:52;;;;;;;37.78;18.00;;;;;;;;;;4753360;30;20024;-74
2022/01/25 02:58:17;;;;;;;44.13;16.50;;;;;;;;;;4753138;30;20047;-74
2022/01/25 03:00:43;;;;;;;38.60;16.43;;;;;;;;;;4754311;30;20048;-74
2022/01/25 03:03:08;;;;;;;42.23;17.57;;;;;;;;;;4754218;30;20504;-74
2022/01/25 03:05:33;;;;;;;37.13;15.07;;;;;;;;;;4754288;30;20174;-74
2022/01/25 03:07:59;;;;;;;47.37;17.93;;;;;;;;;;4746389;30;20035;-75
2022/01/25 03:10:34;;;;;;;41.60;16.37;;;;;;;;;;4754466;30;20402;-74
2022/01/25 03:12:59;;;;;;;37.72;17.77;;;;;;;;;;4746641;30;20044;-75
2022/01/25 03:15:31;;;;;;;45.47;17.97;;;;;;;;;;4754137;30;20036;-74
2022/01/25 03:18:01;;;;;;;36.22;15.30;;;;;;;;;;4753765;30;20055;-74
2022/01/25 03:23:21;;;;;;;37.45;17.08;;;;;;;;;;4753886;30;20132;-74
2022/01/25 03:25:48;;;;;;;42.50;17.85;;;;;;;;;;4744653;30;20482;-74
2022/01/25 03:28:17;;;;;;;44.50;17.60;;;;;;;;;;4753583;30;20494;-74
2022/01/25 03:30:44;;;;;;;38.75;17.13;;;;;;;;;;4752898;30;20044;-74
2022/01/25 03:33:10;;;;;;;37.75;17.45;;;;;;;;;;4753850;30;20117;-74
2022/01/25 03:35:36;;;;;;;35.17;16.23;;;;;;;;;;4752607;30;20487;-74
2022/01/25 03:38:01;;;;;;;42.23;17.13;;;;;;;;;;4753385;30;20052;-74
2022/01/25 03:40:27;;;;;;;39.03;16.63;;;;;;;;;;4751806;30;20048;-74
2022/01/25 03:42:54;;;;;;;37.43;16.93;;;;;;;;;;4753605;30;20059;-74
2022/01/25 03:45:22;;;;;;;35.25;15.02;;;;;;;;;;4753680;30;20051;-74
2022/01/25 03:49:48;;;;;;;40.97;17.77;;;;;;;;;;4753789;30;20071;-74
2022/01/25 03:50:45;;;;;;;45.85;18.08;;;;;;;;;;4751963;30;20047;-75
2022/01/25 03:53:11;;;;;;;38.95;16.60;;;;;;;;;;4753324;30;20557;-74
2022/01/25 03:55:37;;;;;;;39.50;17.08;;;;;;;;;;4753386;30;20043;-74
2022/01/25 03:58:04;;;;;;;37.97;16.77;;;;;;;;;;4752336;30;20050;-74
2022/01/25 04:00:29;;;;;;;39.38;16.88;;;;;;;;;;4752255;30;20052;-74
2022/01/25 04:03:02;;;;;;;41.07;16.83;;;;;;;;;;4752007;30;20086;-74
2022/01/25 04:05:48;;;;;;;39.60;18.25;;;;;;;;;;4753362;30;20472;-75
2022/01/25 04:08:14;;;;;;;43.40;17.38;;;;;;;;;;4753197;30;20122;-74
2022/01/25 04:10:41;;;;;;;39.42;17.38;;;;;;;;;;4752191;30;20156;-74
2022/01/25 04:13:07;;;;;;;43.58;17.02;;;;;;;;;;4752901;30;20486;-74
2022/01/25 04:15:34;;;;;;;46.22;18.23;;;;;;;;;;4751968;30;20064;-74
2022/01/25 04:18:15;;;;;;;41.15;15.98;;;;;;;;;;4751562;30;20544;-74
2022/01/25 04:20:43;;;;;;;47.65;17.95;;;;;;;;;;4751996;30;20475;-74
2022/01/25 04:25:53;;;;;;;42.90;18.52;;;;;;;;;;4751701;30;20102;-74
2022/01/25 04:28:18;;;;;;;44.60;17.47;;;;;;;;;;4752957;30;20491;-74
2022/01/25 04:30:43;;;;;;;47.27;18.90;;;;;;;;;;4752992;30;20051;-74
2022/01/25 04:33:23;;;;;;;44.07;16.80;;;;;;;;;;4752886;30;20470;-74
2022/01/25 04:36:23;;;;;;;38.13;16.38;;;;;;;;;;4751621;30;20050;-74
2022/01/25 04:49:43;;;;;;;41.40;17.80;;;;;;;;;;4752214;30;20056;-74
2022/01/25 04:52:13;;;;;;;47.35;18.85;;;;;;;;;;4752485;30;20044;-74
2022/01/25 04:54:56;;;;;;;47.08;18.10;;;;;;;;;;4752246;30;20455;-74
2022/01/25 04:57:40;;;;;;;44.53;17.70;;;;;;;;;;4752660;30;20136;-74
2022/01/25 05:00:17;;;;;;;43.65;18.33;;;;;;;;;;4752488;30;20047;-75
2022/01/25 05:06:01;;;;;;;40.28;17.27;;;;;;;;;;4697774;30;20060;-74
2022/01/25 05:08:49;;;;;;;42.78;17.55;;;;;;;;;;4746862;30;20048;-74
2022/01/25 05:11:28;;;;;;;43.17;16.35;;;;;;;;;;4752100;30;20044;-74
2022/01/25 05:16:34;;;;;;;42.93;17.13;;;;;;;;;;4752571;30;20052;-74
2022/01/25 05:24:44;;;;;;;39.97;16.75;;;;;;;;;;4744120;30;20067;-74
2022/01/25 05:27:13;;;;;;;41.83;17.58;;;;;;;;;;4751913;30;20546;-74
2022/01/25 05:29:39;;;;;;;41.70;17.55;;;;;;;;;;4752115;30;20056;-74
2022/01/25 05:32:05;;;;;;;36.38;15.63;;;;;;;;;;4746378;30;20063;-76
2022/01/25 05:34:31;;;;;;;44.55;17.80;;;;;;;;;;4751084;30;20075;-77
2022/01/25 05:36:57;;;;;;;46.53;19.27;;;;;;;;;;4752156;30;20475;-77
2022/01/25 05:39:33;;;;;;;49.27;19.20;;;;;;;;;;4751030;30;20043;-76
2022/01/25 05:42:19;;;;;;;41.63;17.40;;;;;;;;;;4752122;30;20288;-77
2022/01/25 05:47:17;;;;;;;43.08;18.02;;;;;;;;;;4751882;30;20056;-74
2022/01/25 05:49:43;;;;;;;42.53;18.67;;;;;;;;;;4751921;30;20054;-74
2022/01/25 05:52:09;;;;;;;40.13;17.25;;;;;;;;;;4752025;30;20037;-74
2022/01/25 05:54:36;;;;;;;44.93;18.00;;;;;;;;;;4750820;30;20048;-74
2022/01/25 05:57:01;;;;;;;47.50;18.08;;;;;;;;;;4750927;30;20054;-74
2022/01/25 05:59:27;;;;;;;40.87;16.63;;;;;;;;;;4751736;30;20040;-74
2022/01/25 06:01:52;;;;;;;37.30;15.23;;;;;;;;;;4752099;30;20044;-77
2022/01/25 06:04:18;;;;;;;40.63;16.83;;;;;;;;;;4754366;30;20059;-76
2022/01/25 06:06:43;;;;;;;41.90;16.63;;;;;;;;;;4754301;30;20032;-77
2022/01/25 06:09:09;;;;;;;40.83;16.93;;;;;;;;;;4755299;30;20040;-77
2022/01/25 06:11:34;;;;;;;46.07;17.17;;;;;;;;;;4755276;30;20051;-77
2022/01/25 06:14:01;;;;;;;46.95;15.88;;;;;;;;;;4755074;30;20064;-76
2022/01/25 06:16:30;;;;;;;46.60;17.77;;;;;;;;;;4755288;30;20120;-75
2022/01/25 06:18:57;;;;;;;38.28;15.52;;;;;;;;;;4753791;30;20717;-75
2022/01/25 06:21:22;;;;;;;38.47;16.52;;;;;;;;;;4753677;30;20447;-75
2022/01/25 06:23:48;;;;;;;37.30;15.83;;;;;;;;;;4754942;30;20077;-75
2022/01/25 06:26:13;;;;;;;38.70;16.47;;;;;;;;;;4755001;30;20119;-75
2022/01/25 06:28:39;;;;;;;38.63;16.60;;;;;;;;;;4754644;30;20032;-75
2022/01/25 06:31:04;;;;;;;42.27;16.83;;;;;;;;;;4755074;30;20102;-75
2022/01/25 06:33:30;;;;;;;48.50;19.03;;;;;;;;;;4754883;30;20470;-75
2022/01/25 06:35:56;;;;;;;44.40;16.87;;;;;;;;;;4754860;30;20036;-76
2022/01/25 06:38:22;;;;;;;44.35;17.30;;;;;;;;;;4754688;30;20079;-75
2022/01/25 06:40:47;;;;;;;42.37;17.00;;;;;;;;;;4753790;30;20075;-75
2022/01/25 06:43:13;;;;;;;36.43;15.00;;;;;;;;;;4754658;30;20098;-75
2022/01/25 06:45:40;;;;;;;41.47;16.47;;;;;;;;;;4754704;30;20051;-75
2022/01/25 06:48:06;;;;;;;38.25;15.85;;;;;;;;;;4754735;30;20048;-75
2022/01/25 06:50:32;;;;;;;44.23;18.93;;;;;;;;;;4753115;30;20043;-75
2022/01/25 06:52:58;;;;;;;42.25;16.98;;;;;;;;;;4753112;30;20494;-75
2022/01/25 06:55:23;;;;;;;42.47;16.90;;;;;;;;;;4754482;30;20082;-75
2022/01/25 06:57:49;;;;;;;40.57;16.13;;;;;;;;;;4754203;30;20036;-75
2022/01/25 07:00:18;;;;;;;42.27;18.90;;;;;;;;;;4754549;30;20040;-75
2022/01/25 07:02:43;;;;;;;35.97;14.88;;;;;;;;;;4752876;30;20052;-75
2022/01/25 07:05:09;;;;;;;35.37;14.70;;;;;;;;;;4754289;30;20109;-75
2022/01/25 07:07:35;;;;;;;45.27;17.00;;;;;;;;;;4754239;30;20044;-75
2022/01/25 07:10:02;;;;;;;33.88;15.57;;;;;;;;;;4754356;30;20053;-75
2022/01/25 07:12:28;;;;;;;39.40;15.70;;;;;;;;;;4753959;30;20406;-78
2022/01/25 07:14:53;;;;;;;35.90;13.73;;;;;;;;;;4753938;30;20352;-78
2022/01/25 07:17:19;;;;;;;44.70;15.80;;;;;;;;;;4754230;30;20044;-78
2022/01/25 07:19:44;;;;;;;41.27;16.43;;;;;;;;;;4754010;30;20441;-78
2022/01/25 07:22:10;;;;;;;42.83;16.30;;;;;;;;;;4754277;30;20449;-78
2022/01/25 07:24:35;;;;;;;40.27;15.87;;;;;;;;;;4754062;30;20124;-74
2022/01/25 07:27:01;;;;;;;41.00;15.40;;;;;;;;;;4753993;30;20067;-75
2022/01/25 07:29:27;;;;;;;37.87;16.90;;;;;;;;;;4754071;30;20095;-73
2022/01/25 07:31:53;;;;;;;42.72;15.55;;;;;;;;;;4752735;30;20123;-74
2022/01/25 07:34:18;;;;;;;37.80;15.10;;;;;;;;;;4752707;30;20534;-75
2022/01/25 07:36:44;;;;;;;39.70;16.90;;;;;;;;;;4753863;30;20079;-76
2022/01/25 07:39:10;;;;;;;31.53;14.53;;;;;;;;;;4753679;30;20114;-76
2022/01/25 07:41:37;;;;;;;34.22;14.13;;;;;;;;;;4753795;30;20119;-75
2022/01/25 07:44:03;;;;;;;39.33;16.13;;;;;;;;;;4752207;30;20049;-76
2022/01/25 07:46:29;;;;;;;41.55;16.17;;;;;;;;;;4742352;30;20380;-76
2022/01/25 07:48:55;;;;;;;44.85;16.98;;;;;;;;;;4747639;30;20056;-75
2022/01/25 07:51:21;;;;;;;42.88;17.33;;;;;;;;;;4747327;30;20250;-75
2022/01/25 07:53:46;;;;;;;43.30;15.70;;;;;;;;;;4750435;30;20045;-75
2022/01/25 07:56:12;;;;;;;39.93;14.93;;;;;;;;;;4750602;30;20063;-75
2022/01/25 07:58:37;;;;;;;44.53;16.37;;;;;;;;;;4752315;30;20040;-75
2022/01/25 08:01:03;;;;;;;37.90;15.93;;;;;;;;;;4753309;30;20048;-77
2022/01/25 08:03:29;;;;;;;40.88;13.95;;;;;;;;;;4752050;30;20060;-77
2022/01/25 08:05:55;;;;;;;38.53;16.40;;;;;;;;;;4751818;30;20054;-78
2022/01/25 08:08:20;;;;;;;39.70;15.77;;;;;;;;;;4752224;30;20407;-78
2022/01/25 08:10:46;;;;;;;42.80;15.77;;;;;;;;;;4751901;30;20036;-77
2022/01/25 08:13:11;;;;;;;41.00;14.87;;;;;;;;;;4749363;30;20508;-74
2022/01/25 08:15:36;;;;;;;37.80;14.13;;;;;;;;;;4746261;30;20043;-74
2022/01/25 08:18:02;;;;;;;41.57;15.33;;;;;;;;;;4745496;30;20041;-73
2022/01/25 08:20:27;;;;;;;42.57;15.47;;;;;;;;;;4751233;30;20048;-76
2022/01/25 08:22:53;;;;;;;35.87;14.20;;;;;;;;;;4734192;30;20543;-76
2022/01/25 08:25:19;;;;;;;40.17;15.33;;;;;;;;;;4750259;30;20032;-76
2022/01/25 08:27:45;;;;;;;44.88;19.42;;;;;;;;;;4752545;30;20043;-74
2022/01/25 08:30:12;;;;;;;49.67;20.15;;;;;;;;;;4751847;30;20114;-76
2022/01/25 08:32:38;;;;;;;42.72;16.75;;;;;;;;;;4751735;30;20044;-76
2022/01/25 08:35:03;;;;;;;41.70;16.80;;;;;;;;;;4751184;30;20115;-76
2022/01/25 08:37:29;;;;;;;48.80;19.83;;;;;;;;;;4745827;30;20513;-76
2022/01/25 08:39:54;;;;;;;41.10;14.23;;;;;;;;;;4752772;30;20072;-76
2022/01/25 08:42:20;;;;;;;34.50;14.53;;;;;;;;;;4752816;30;20454;-76
2022/01/25 08:44:45;;;;;;;40.37;15.03;;;;;;;;;;4751352;30;20044;-76
2022/01/25 08:47:11;;;;;;;36.07;14.30;;;;;;;;;;4750678;30;20102;-76
2022/01/25 08:49:38;;;;;;;36.07;13.13;;;;;;;;;;4746876;30;20086;-74
2022/01/25 08:52:04;;;;;;;35.90;13.77;;;;;;;;;;4745538;30;20036;-74
2022/01/25 08:54:30;;;;;;;33.17;14.40;;;;;;;;;;4747203;30;20048;-74
2022/01/25 08:56:55;;;;;;;39.37;15.70;;;;;;;;;;4749380;30;20056;-76
2022/01/25 08:59:21;;;;;;;38.37;13.13;;;;;;;;;;4748379;30;20235;-74
2022/01/25 09:01:46;;;;;;;38.93;14.67;;;;;;;;;;4748489;30;20028;-74
2022/01/25 09:04:12;;;;;;;46.27;15.93;;;;;;;;;;4749675;30;20056;-74
2022/01/25 09:06:37;;;;;;;30.90;14.27;;;;;;;;;;4750744;30;20055;-74
2022/01/25 09:09:04;;;;;;;35.50;13.93;;;;;;;;;;4751452;30;20047;-74
2022/01/25 09:11:30;;;;;;;42.00;14.23;;;;;;;;;;4744668;30;20040;-75
2022/01/25 09:13:56;;;;;;;34.10;15.93;;;;;;;;;;4749724;30;20549;-72
2022/01/25 09:16:22;;;;;;;36.27;14.50;;;;;;;;;;4750752;30;20028;-74
2022/01/25 09:18:47;;;;;;;34.67;14.30;;;;;;;;;;4749977;30;20127;-74
2022/01/25 09:21:13;;;;;;;35.67;13.90;;;;;;;;;;4751339;30;20044;-74
2022/01/25 09:23:38;;;;;;;37.30;13.43;;;;;;;;;;4751652;30;20032;-74
2022/01/25 09:26:04;;;;;;;35.53;14.33;;;;;;;;;;4752098;30;20479;-75
2022/01/25 09:28:29;;;;;;;35.70;14.40;;;;;;;;;;4752461;30;20040;-76
2022/01/25 09:30:55;;;;;;;32.90;13.10;;;;;;;;;;4752187;30;20232;-76
2022/01/25 09:33:24;;;;;;;34.30;13.40;;;;;;;;;;4752080;30;20546;-77
2022/01/25 09:35:51;;;;;;;33.83;12.68;;;;;;;;;;4752018;30;20402;-77
2022/01/25 09:38:16;;;;;;;37.15;12.70;;;;;;;;;;4753534;30;20097;-77
2022/01/25 09:40:42;;;;;;;34.90;14.07;;;;;;;;;;4755566;30;20586;-76
2022/01/25 09:43:08;;;;;;;32.50;13.23;;;;;;;;;;4747503;30;20609;-76
2022/01/25 09:45:34;;;;;;;34.17;13.33;;;;;;;;;;4751233;30;20391;-76
2022/01/25 09:47:59;;;;;;;36.97;13.65;;;;;;;;;;4754289;30;20044;-76
2022/01/25 09:50:26;;;;;;;37.30;15.60;;;;;;;;;;4754356;30;20126;-76
2022/01/25 09:52:52;;;;;;;;;;;;;;;;;;4755842;30;20097;-76
2022/01/25 09:55:23;;;;;;;39.47;14.93;;;;;;;;;;4752444;30;20449;-76
2022/01/25 09:57:48;;;;;;;45.03;16.60;;;;;;;;;;4748329;30;20044;-76
2022/01/25 10:00:16;;;;;;;35.57;15.53;;;;;;;;;;4751383;30;20048;-76
2022/01/25 10:02:51;;;;;;;40.38;14.98;;;;;;;;;;4756641;30;20494;-76
2022/01/25 10:05:16;;;;;;;37.97;15.23;;;;;;;;;;4762052;30;20060;-76
2022/01/25 10:07:41;;;;;;;36.30;13.83;;;;;;;;;;4758854;30;20405;-78
2022/01/25 10:10:07;;;;;;;35.90;14.57;;;;;;;;;;4752917;30;20147;-77
2022/01/25 10:12:33;;;;;;;34.07;14.43;;;;;;;;;;4758709;30;20039;-77
2022/01/25 10:15:01;;;;;;;37.10;12.73;;;;;;;;;;4755565;30;20126;-78
2022/01/25 10:17:34;;;;;;;41.50;15.27;;;;;;;;;;4760079;30;20047;-78
2022/01/25 10:20:00;;;;;;;40.53;16.27;;;;;;;;;;4758593;30;20402;-78
2022/01/25 10:22:26;;;;;;;40.40;17.30;;;;;;;;;;4749262;30;20046;-78
2022/01/25 10:24:51;;;;;;;36.67;15.45;;;;;;;;;;4755950;30;20040;-78
2022/01/25 10:27:22;;;;;;;44.90;17.83;;;;;;;;;;4754302;30;20044;-78
2022/01/25 10:29:48;;;;;;;47.35;17.90;;;;;;;;;;4759181;30;20165;-78
2022/01/25 10:32:14;;;;;;;40.93;16.03;;;;;;;;;;4760897;30;20110;-77
2022/01/25 10:34:46;;;;;;;36.30;16.42;;;;;;;;;;4754065;30;20048;-77
2022/01/25 10:37:14;;;;;;;39.97;18.15;;;;;;;;;;4749708;30;20059;-78
2022/01/25 10:39:43;;;;;;;47.55;18.88;;;;;;;;;;4742331;30;20127;-78
2022/01/25 10:42:23;;;;;;;37.90;16.55;;;;;;;;;;4745324;30;20055;-78
2022/01/25 10:45:10;;;;;;;39.97;15.90;;;;;;;;;;4745143;30;20063;-77
2022/01/25 10:47:52;;;;;;;43.05;16.60;;;;;;;;;;4751335;30;20094;-78
2022/01/25 10:50:23;;;;;;;43.20;17.23;;;;;;;;;;4750002;30;20050;-77
2022/01/25 10:53:09;;;;;;;39.58;16.35;;;;;;;;;;4750059;30;20387;-78
2022/01/25 10:55:46;;;;;;;42.25;16.75;;;;;;;;;;4749413;30;20044;-78
2022/01/25 10:58:13;;;;;;;40.40;15.75;;;;;;;;;;4750785;30;20550;-78
2022/01/25 11:00:42;;;;;;;39.63;16.33;;;;;;;;;;4751101;30;20044;-78
2022/01/25 11:03:08;;;;;;;40.95;16.95;;;;;;;;;;4749168;30;20135;-78
2022/01/25 11:05:36;;;;;;;41.30;17.73;;;;;;;;;;4750429;30;20123;-77
2022/01/25 11:08:14;;;;;;;42.65;18.67;;;;;;;;;;4750670;30;20156;-77
2022/01/25 11:10:51;;;;;;;;;;;;;;;;;;4749894;30;20132;-78
2022/01/25 11:15:57;;;;;;;38.60;15.13;;;;;;;;;;4750462;30;20130;-77
2022/01/25 11:18:22;;;;;;;35.25;15.57;;;;;;;;;;4749468;30;20078;-78
2022/01/25 11:20:51;;;;;;;41.27;15.70;;;;;;;;;;4750273;30;20048;-77
2022/01/25 11:23:20;;;;;;;42.63;18.05;;;;;;;;;;4749297;30;20071;-78
2022/01/25 11:25:46;;;;;;;42.75;18.48;;;;;;;;;;4749075;30;20737;-78
2022/01/25 11:28:13;;;;;;;44.10;16.33;;;;;;;;;;4748935;30;20487;-77
2022/01/25 11:30:40;;;;;;;44.10;18.65;;;;;;;;;;4749814;30;20111;-77
2022/01/25 11:33:07;;;;;;;49.42;17.58;;;;;;;;;;4749074;30;20607;-78
2022/01/25 11:35:32;;;;;;;;;;;;;;;;;;4749651;30;20052;-78
2022/01/25 11:37:58;;;;;;;51.75;20.27;;;;;;;;;;4733734;30;19925;-78
2022/01/25 11:40:28;;;;;;;48.57;19.10;;;;;;;;;;4750235;30;20059;-77
2022/01/25 11:42:58;;;;;;;43.88;15.60;;;;;;;;;;4749011;30;20052;-78
2022/01/25 11:45:27;;;;;;;42.17;16.90;;;;;;;;;;4749874;30;20128;-77
2022/01/25 11:47:53;;;;;;;40.25;16.85;;;;;;;;;;4748445;30;20132;-78
2022/01/25 11:50:19;;;;;;;50.00;19.92;;;;;;;;;;4748688;30;20055;-77
2022/01/25 11:52:55;;;;;;;42.90;18.60;;;;;;;;;;4749923;30;20044;-78
2022/01/25 11:55:31;;;;;;;48.35;18.02;;;;;;;;;;4748732;30;20044;-76
2022/01/25 11:58:00;;;;;;;46.47;18.45;;;;;;;;;;4749540;30;20485;-77
2022/01/25 12:00:38;;;;;;;43.47;18.00;;;;;;;;;;4744708;30;20037;-77
2022/01/25 12:03:28;;;;;;;42.72;18.73;;;;;;;;;;4742676;30;20066;-77
2022/01/25 12:06:14;;;;;;;47.15;18.50;;;;;;;;;;4745586;30;20056;-77
2022/01/25 12:12:00;;;;;;;49.38;19.27;;;;;;;;;;4749730;30;20063;-78
2022/01/25 12:14:38;;;;;;;59.58;24.05;;;;;;;;;;4743364;30;20059;-78
2022/01/25 12:17:03;;;;;;;47.67;21.00;;;;;;;;;;4745987;30;20052;-77
2022/01/25 12:19:36;;;;;;;48.80;18.93;;;;;;;;;;4749589;30;20542;-78
2022/01/25 12:22:04;;;;;;;56.78;20.50;;;;;;;;;;4740037;30;20074;-78
2022/01/25 12:24:58;;;;;;;53.03;19.67;;;;;;;;;;4749828;30;20109;-77
2022/01/25 12:27:50;;;;;;;49.97;18.92;;;;;;;;;;4743067;30;20068;-77
2022/01/25 12:30:32;;;;;;;48.42;18.80;;;;;;;;;;4747851;30;20079;-78
2022/01/25 12:33:02;;;;;;;54.50;19.45;;;;;;;;;;4736577;30;20048;-78
2022/01/25 12:35:54;;;;;;;59.05;20.33;;;;;;;;;;4748260;30;20409;-77
2022/01/25 12:38:27;;;;;;;53.17;21.00;;;;;;;;;;4747925;30;20043;-77
2022/01/25 12:41:05;;;;;;;54.90;22.00;;;;;;;;;;4749010;30;20114;-77
2022/01/25 12:43:53;;;;;;;54.80;22.08;;;;;;;;;;4748644;30;20498;-77
2022/01/25 12:46:28;;;;;;;55.38;19.52;;;;;;;;;;4748963;30;20044;-78
2022/01/25 12:48:56;;;;;;;54.80;20.15;;;;;;;;;;4747728;30;20051;-77
2022/01/25 12:51:28;;;;;;;49.58;19.10;;;;;;;;;;4749229;30;20051;-77
2022/01/25 12:53:56;;;;;;;52.22;19.92;;;;;;;;;;4737302;30;20048;-77
2022/01/25 12:56:28;;;;;;;45.83;17.95;;;;;;;;;;4747372;30;20051;-77
2022/01/25 12:59:14;;;;;;;51.88;20.08;;;;;;;;;;4747917;30;20422;-77
2022/01/25 13:01:41;;;;;;;50.67;19.35;;;;;;;;;;4746781;30;20036;-78
2022/01/25 13:04:07;;;;;;;48.28;19.05;;;;;;;;;;4747830;30;20569;-78
2022/01/25 13:06:36;;;;;;;51.20;20.35;;;;;;;;;;4745568;30;20044;-77
2022/01/25 13:09:14;;;;;;;54.40;21.00;;;;;;;;;;4747379;30;20039;-77
2022/01/25 13:17:19;;;;;;;56.30;19.70;;;;;;;;;;4738636;30;20052;-78
2022/01/25 13:19:54;;;;;;;51.40;18.92;;;;;;;;;;4733449;30;20056;-77
2022/01/25 13:22:36;;;;;;;50.67;21.00;;;;;;;;;;4741795;30;20055;-77
2022/01/25 13:25:25;;;;;;;48.83;19.42;;;;;;;;;;4739965;30;20088;-77
2022/01/25 13:27:54;;;;;;;44.60;18.40;;;;;;;;;;4749170;30;20045;-77
2022/01/25 13:30:48;;;;;;;52.38;20.35;;;;;;;;;;4741575;30;20036;-77
2022/01/25 13:33:17;;;;;;;47.75;18.77;;;;;;;;;;4743430;30;20055;-77
2022/01/25 13:35:48;;;;;;;50.45;19.75;;;;;;;;;;4748034;30;20052;-77
2022/01/25 13:38:24;;;;;;;56.72;20.20;;;;;;;;;;4745792;30;20131;-77
2022/01/25 13:40:56;;;;;;;50.00;19.77;;;;;;;;;;4748828;30;20383;-77
2022/01/25 13:46:09;;;;;;;54.05;19.85;;;;;;;;;;4748768;30;20047;-77
2022/01/25 13:48:35;;;;;;;46.58;18.63;;;;;;;;;;4748419;30;20036;-77
2022/01/25 13:51:08;;;;;;;49.08;19.40;;;;;;;;;;4748579;30;20470;-77
2022/01/25 13:53:36;;;;;;;50.00;18.52;;;;;;;;;;4747857;30;20047;-77
2022/01/25 13:56:04;;;;;;;49.55;20.85;;;;;;;;;;4746192;30;20063;-78
2022/01/25 13:58:29;;;;;;;53.20;22.35;;;;;;;;;;4744243;30;20044;-77
2022/01/25 14:00:57;;;;;;;51.57;18.33;;;;;;;;;;4747795;30;20040;-77
2022/01/25 14:03:30;;;;;;;50.55;18.63;;;;;;;;;;4746353;30;20088;-77
2022/01/25 14:05:56;;;;;;;50.13;20.08;;;;;;;;;;4742773;30;20044;-77
2022/01/25 14:08:41;;;;;;;53.50;19.43;;;;;;;;;;4747151;30;20048;-78
2022/01/25 14:11:50;;;;;;;47.83;19.33;;;;;;;;;;4747154;30;20041;-77
2022/01/25 14:22:51;;;;;;;54.60;21.98;;;;;;;;;;4734567;30;20107;-77
2022/01/25 14:25:43;;;;;;;55.58;19.80;;;;;;;;;;4746622;30;20044;-77
2022/01/25 14:28:18;;;;;;;53.67;21.05;;;;;;;;;;4751489;30;20040;-78
2022/01/25 14:30:46;;;;;;;60.78;20.45;;;;;;;;;;4751531;30;20125;-77
2022/01/25 14:33:15;;;;;;;56.08;21.02;;;;;;;;;;4750097;30;20500;-77
2022/01/25 14:35:47;;;;;;;49.90;21.25;;;;;;;;;;4751144;30;20048;-77
2022/01/25 14:38:21;;;;;;;52.00;20.92;;;;;;;;;;4750983;30;20103;-77
2022/01/25 14:41:00;;;;;;;55.33;20.83;;;;;;;;;;4749907;30;20082;-77
2022/01/25 14:43:29;;;;;;;54.95;20.55;;;;;;;;;;4749717;30;20044;-77
2022/01/25 14:46:03;;;;;;;59.67;20.67;;;;;;;;;;4745675;30;20055;-77
2022/01/25 14:48:33;;;;;;;51.78;18.73;;;;;;;;;;4747230;30;20101;-77
2022/01/25 14:50:59;;;;;;;57.22;21.02;;;;;;;;;;4750233;30;20054;-77
2022/01/25 14:53:25;;;;;;;57.77;20.90;;;;;;;;;;4749933;30;20040;-78
2022/01/25 14:55:52;;;;;;;54.37;20.47;;;;;;;;;;4748019;30;20450;-77
2022/01/25 15:00:46;;;;;;;54.37;18.57;;;;;;;;;;4751384;30;20123;-78
2022/01/25 15:03:12;;;;;;;47.67;19.58;;;;;;;;;;4749756;30;20406;-78
2022/01/25 15:05:37;;;;;;;58.23;20.80;;;;;;;;;;4751155;30;20044;-78
2022/01/25 15:08:03;;;;;;;53.83;21.43;;;;;;;;;;4750663;30;20769;-78
2022/01/25 15:10:31;;;;;;;55.60;21.33;;;;;;;;;;4750293;30;20047;-77
2022/01/25 15:12:57;;;;;;;48.75;19.75;;;;;;;;;;4750127;30;20048;-78
2022/01/25 15:15:33;;;;;;;54.97;20.50;;;;;;;;;;4747912;30;20487;-77
2022/01/25 15:17:58;;;;;;;46.08;18.92;;;;;;;;;;4740899;30;20169;-77
2022/01/25 15:20:24;;;;;;;46.17;19.03;;;;;;;;;;4751145;30;20126;-78
2022/01/25 15:22:50;;;;;;;46.77;18.70;;;;;;;;;;4750738;30;20911;-78
2022/01/25 15:25:22;;;;;;;51.17;20.70;;;;;;;;;;4750020;30;20036;-77
2022/01/25 15:27:51;;;;;;;57.20;20.15;;;;;;;;;;4750040;30;20040;-78
2022/01/25 15:30:19;;;;;;;51.25;20.02;;;;;;;;;;4749274;30;20110;-77
2022/01/25 15:32:44;;;;;;;51.55;20.67;;;;;;;;;;4748021;30;20628;-77
2022/01/25 15:35:10;;;;;;;50.80;21.00;;;;;;;;;;4750104;30;20127;-77
2022/01/25 15:37:36;;;;;;;52.90;20.20;;;;;;;;;;4749400;30;20047;-78
2022/01/25 15:40:03;;;;;;;52.47;22.42;;;;;;;;;;4750126;30;20509;-78
2022/01/25 15:42:30;;;;;;;61.58;23.55;;;;;;;;;;4749347;30;20044;-77
2022/01/25 15:44:56;;;;;;;59.45;23.65;;;;;;;;;;4749904;30;20055;-78
2022/01/25 15:47:26;;;;;;;55.30;21.80;;;;;;;;;;4749916;30;20051;-78
2022/01/25 15:49:51;;;;;;;76.30;30.23;;;;;;;;;;4749898;30;20047;-78
2022/01/25 15:52:17;;;;;;;69.17;29.40;;;;;;;;;;4749025;30;20406;-77
2022/01/25 15:54:43;;;;;;;69.10;30.07;;;;;;;;;;4750748;30;20044;-78
2022/01/25 15:57:10;;;;;;;67.40;27.55;;;;;;;;;;4748339;30;20028;-78
2022/01/25 15:59:36;;;;;;;62.30;25.52;;;;;;;;;;4748650;30;20078;-78
2022/01/25 16:02:11;;;;;;;57.67;22.93;;;;;;;;;;4748128;30;20056;-78
2022/01/25 16:04:41;;;;;;;57.20;21.88;;;;;;;;;;4749956;30;20044;-78
2022/01/25 16:07:09;;;;;;;51.90;20.13;;;;;;;;;;4749303;30;20052;-77
2022/01/25 16:09:37;;;;;;;56.15;22.70;;;;;;;;;;4748460;30;20431;-78
2022/01/25 16:12:03;;;;;;;56.58;22.60;;;;;;;;;;4748790;30;20044;-78
2022/01/25 16:14:29;;;;;;;49.93;21.70;;;;;;;;;;4749417;30;20534;-77
2022/01/25 16:16:54;;;;;;;55.00;22.17;;;;;;;;;;4749774;30;20547;-78
2022/01/25 16:19:19;;;;;;;58.23;22.17;;;;;;;;;;4749328;30;20036;-77
2022/01/25 16:21:45;;;;;;;57.43;22.10;;;;;;;;;;4749783;30;20044;-78
2022/01/25 16:24:10;;;;;;;51.20;21.13;;;;;;;;;;4749499;30;20040;-78
2022/01/25 16:26:36;;;;;;;59.20;22.73;;;;;;;;;;4748900;30;20066;-77
2022/01/25 16:29:02;;;;;;;59.80;22.27;;;;;;;;;;4748387;30;20409;-78
2022/01/25 16:31:32;;;;;;;52.47;19.93;;;;;;;;;;4749533;30;20036;-77
2022/01/25 16:34:00;;;;;;;53.83;21.85;;;;;;;;;;4748768;30;20036;-78
2022/01/25 16:36:26;;;;;;;55.30;21.80;;;;;;;;;;4749437;30;20048;-77